createdAt,value
2018-04-17T00:00:09.809Z,0.00
2018-04-17T00:01:09.807Z,0.00
2018-04-17T00:02:09.806Z,0.00
2018-04-17T00:03:09.808Z,0.00
2018-04-17T00:04:09.806Z,0.00
2018-04-17T00:05:09.803Z,0.00
2018-04-17T00:06:09.800Z,0.00
2018-04-17T00:07:09.799Z,0.00
2018-04-17T00:08:09.798Z,0.00
2018-04-17T00:09:09.796Z,0.00
2018-04-17T00:10:09.795Z,0.00
2018-04-17T00:11:09.791Z,0.00
2018-04-17T00:12:09.791Z,0.00
2018-04-17T00:13:09.790Z,0.00
2018-04-17T00:14:09.795Z,0.00
2018-04-17T00:15:09.787Z,0.00
2018-04-17T00:16:09.785Z,0.00
2018-04-17T00:17:09.784Z,0.00
2018-04-17T00:18:09.781Z,0.00
2018-04-17T00:19:09.781Z,0.00
2018-04-17T00:20:09.780Z,0.00
2018-04-17T00:21:09.778Z,0.00
2018-04-17T00:22:09.775Z,0.00
2018-04-17T00:23:09.773Z,0.00
2018-04-17T00:24:09.772Z,0.00
2018-04-17T00:25:09.772Z,0.00
2018-04-17T00:26:09.771Z,0.00
2018-04-17T00:27:09.767Z,0.00
2018-04-17T00:28:09.769Z,0.00
2018-04-17T00:29:09.767Z,0.00
2018-04-17T00:30:09.761Z,0.00
2018-04-17T00:31:09.757Z,0.00
2018-04-17T00:32:09.756Z,0.00
2018-04-17T00:33:09.756Z,0.00
2018-04-17T00:34:09.754Z,0.00
2018-04-17T00:35:09.757Z,0.00
2018-04-17T00:36:09.749Z,0.00
2018-04-17T00:37:09.749Z,0.00
2018-04-17T00:38:09.747Z,0.00
2018-04-17T00:39:09.744Z,0.00
2018-04-17T00:40:09.743Z,0.00
2018-04-17T00:41:09.741Z,0.00
2018-04-17T00:42:09.740Z,0.00
2018-04-17T00:43:09.740Z,0.00
2018-04-17T00:44:09.737Z,0.00
2018-04-17T00:45:09.755Z,0.00
2018-04-17T00:46:09.736Z,0.00
2018-04-17T00:47:09.732Z,0.00
2018-04-17T00:48:09.730Z,0.00
2018-04-17T00:49:09.728Z,0.00
2018-04-17T00:50:09.726Z,0.00
2018-04-17T00:51:09.725Z,0.00
2018-04-17T00:52:09.727Z,0.00
2018-04-17T00:53:09.722Z,0.00
2018-04-17T00:54:09.724Z,0.00
2018-04-17T00:55:09.717Z,0.00
2018-04-17T00:56:09.715Z,0.00
2018-04-17T00:57:09.716Z,0.00
2018-04-17T00:58:09.714Z,0.00
2018-04-17T00:59:09.710Z,0.00
2018-04-17T01:00:09.709Z,0.00
2018-04-17T01:01:09.707Z,0.00
2018-04-17T01:02:09.705Z,0.00
2018-04-17T01:03:09.706Z,0.00
2018-04-17T01:04:09.705Z,0.00
2018-04-17T01:05:09.701Z,0.00
2018-04-17T01:06:09.698Z,0.00
2018-04-17T01:07:09.696Z,0.00
2018-04-17T01:08:09.695Z,0.00
2018-04-17T01:09:09.693Z,0.00
2018-04-17T01:10:09.690Z,0.00
2018-04-17T01:11:09.687Z,0.00
2018-04-17T01:12:09.686Z,0.00
2018-04-17T01:13:09.686Z,0.00
2018-04-17T01:14:09.682Z,0.00
2018-04-17T01:15:09.680Z,0.00
2018-04-17T01:16:09.677Z,0.00
2018-04-17T01:17:09.675Z,0.00
2018-04-17T01:18:09.675Z,0.00
2018-04-17T01:19:09.674Z,0.00
2018-04-17T01:20:09.670Z,0.00
2018-04-17T01:21:09.670Z,0.00
2018-04-17T01:22:09.668Z,0.00
2018-04-17T01:23:09.668Z,0.00
2018-04-17T01:24:09.662Z,0.00
2018-04-17T01:25:09.663Z,0.00
2018-04-17T01:26:09.658Z,0.00
2018-04-17T01:27:09.656Z,0.00
2018-04-17T01:28:09.653Z,0.00
2018-04-17T01:29:09.654Z,0.00
2018-04-17T01:30:09.653Z,0.00
2018-04-17T01:31:09.649Z,0.00
2018-04-17T01:32:09.647Z,0.00
2018-04-17T01:33:09.644Z,0.00
2018-04-17T01:34:09.641Z,0.00
2018-04-17T01:35:09.640Z,0.00
2018-04-17T01:36:09.637Z,0.00
2018-04-17T01:37:09.635Z,0.00
2018-04-17T01:38:09.634Z,0.00
2018-04-17T01:39:09.630Z,0.00
2018-04-17T01:40:09.628Z,0.00
2018-04-17T01:41:09.628Z,0.00
2018-04-17T01:42:09.626Z,0.00
2018-04-17T01:43:09.625Z,0.00
2018-04-17T01:44:09.619Z,0.00
2018-04-17T01:45:09.622Z,0.00
2018-04-17T01:46:09.619Z,0.00
2018-04-17T01:47:09.612Z,0.00
2018-04-17T01:48:09.612Z,0.00
2018-04-17T01:49:09.609Z,0.00
2018-04-17T01:50:09.611Z,0.00
2018-04-17T01:51:09.604Z,0.00
2018-04-17T01:52:09.604Z,0.00
2018-04-17T01:53:09.602Z,0.00
2018-04-17T01:54:09.601Z,0.00
2018-04-17T01:55:09.598Z,0.00
2018-04-17T01:56:09.598Z,0.00
2018-04-17T01:57:09.594Z,0.00
2018-04-17T01:58:09.593Z,0.00
2018-04-17T01:59:09.590Z,0.00
2018-04-17T02:00:09.590Z,0.00
2018-04-17T02:01:09.589Z,0.00
2018-04-17T02:02:09.586Z,0.00
2018-04-17T02:03:09.581Z,0.00
2018-04-17T02:04:09.580Z,0.00
2018-04-17T02:05:09.580Z,0.00
2018-04-17T02:06:09.580Z,0.00
2018-04-17T02:07:09.576Z,0.00
2018-04-17T02:08:09.574Z,0.00
2018-04-17T02:09:09.570Z,0.00
2018-04-17T02:10:09.567Z,0.00
2018-04-17T02:11:09.564Z,0.00
2018-04-17T02:12:09.562Z,0.00
2018-04-17T02:13:09.559Z,0.00
2018-04-17T02:14:09.559Z,0.00
2018-04-17T02:15:09.557Z,0.00
2018-04-17T02:16:09.556Z,0.00
2018-04-17T02:17:09.551Z,0.00
2018-04-17T02:18:09.550Z,0.00
2018-04-17T02:19:09.548Z,0.00
2018-04-17T02:20:09.545Z,0.00
2018-04-17T02:21:09.543Z,0.00
2018-04-17T02:22:09.540Z,0.00
2018-04-17T02:23:09.536Z,0.00
2018-04-17T02:24:09.535Z,0.00
2018-04-17T02:25:09.532Z,0.00
2018-04-17T02:26:09.532Z,0.00
2018-04-17T02:27:09.530Z,0.00
2018-04-17T02:28:09.525Z,0.00
2018-04-17T02:29:09.524Z,0.00
2018-04-17T02:30:09.524Z,0.00
2018-04-17T02:31:09.518Z,0.00
2018-04-17T02:32:09.516Z,0.00
2018-04-17T02:33:09.517Z,0.00
2018-04-17T02:34:09.520Z,0.00
2018-04-17T02:35:09.509Z,0.00
2018-04-17T02:36:09.508Z,0.00
2018-04-17T02:37:09.507Z,0.00
2018-04-17T02:38:09.508Z,0.00
2018-04-17T02:39:09.500Z,0.00
2018-04-17T02:40:09.502Z,0.00
2018-04-17T02:41:09.496Z,0.00
2018-04-17T02:42:09.495Z,0.00
2018-04-17T02:43:09.491Z,0.00
2018-04-17T02:44:09.490Z,0.00
2018-04-17T02:45:09.487Z,0.00
2018-04-17T02:46:09.485Z,0.00
2018-04-17T02:47:09.485Z,0.00
2018-04-17T02:48:09.480Z,0.00
2018-04-17T02:49:09.479Z,0.00
2018-04-17T02:50:09.474Z,0.00
2018-04-17T02:51:09.472Z,0.00
2018-04-17T02:52:09.479Z,0.00
2018-04-17T02:53:09.468Z,0.00
2018-04-17T02:54:09.464Z,0.00
2018-04-17T02:55:09.460Z,0.00
2018-04-17T02:56:09.459Z,0.00
2018-04-17T02:57:09.458Z,0.00
2018-04-17T02:58:09.453Z,0.00
2018-04-17T02:59:09.451Z,0.00
2018-04-17T03:00:09.448Z,0.00
2018-04-17T03:01:09.451Z,0.00
2018-04-17T03:02:09.444Z,0.00
2018-04-17T03:03:09.442Z,0.00
2018-04-17T03:04:09.437Z,0.00
2018-04-17T03:05:09.437Z,0.00
2018-04-17T03:06:09.436Z,0.00
2018-04-17T03:07:09.430Z,0.00
2018-04-17T03:08:09.431Z,0.00
2018-04-17T03:09:09.425Z,0.00
2018-04-17T03:10:09.428Z,0.00
2018-04-17T03:11:09.421Z,0.00
2018-04-17T03:12:09.418Z,0.00
2018-04-17T03:13:09.416Z,0.00
2018-04-17T03:14:09.421Z,0.00
2018-04-17T03:15:09.412Z,0.00
2018-04-17T03:16:09.411Z,0.00
2018-04-17T03:17:09.408Z,0.00
2018-04-17T03:18:09.406Z,0.00
2018-04-17T03:19:09.405Z,0.00
2018-04-17T03:20:09.401Z,0.00
2018-04-17T03:21:09.398Z,0.00
2018-04-17T03:22:09.399Z,0.00
2018-04-17T03:23:09.394Z,0.00
2018-04-17T03:24:09.393Z,0.00
2018-04-17T03:25:09.390Z,0.00
2018-04-17T03:26:09.388Z,0.00
2018-04-17T03:27:09.385Z,0.00
2018-04-17T03:28:09.385Z,0.00
2018-04-17T03:29:09.381Z,0.00
2018-04-17T03:30:09.381Z,0.00
2018-04-17T03:31:09.379Z,0.00
2018-04-17T03:32:09.375Z,0.00
2018-04-17T03:33:09.372Z,0.00
2018-04-17T03:34:09.373Z,0.00
2018-04-17T03:35:09.366Z,0.00
2018-04-17T03:36:09.395Z,0.00
2018-04-17T03:37:09.372Z,0.00
2018-04-17T03:38:09.362Z,0.00
2018-04-17T03:39:09.358Z,0.00
2018-04-17T03:40:09.358Z,0.00
2018-04-17T03:41:09.355Z,0.00
2018-04-17T03:42:09.355Z,0.00
2018-04-17T03:43:09.348Z,0.00
2018-04-17T03:44:09.348Z,0.00
2018-04-17T03:45:09.350Z,0.00
2018-04-17T03:46:09.347Z,0.00
2018-04-17T03:47:09.339Z,0.00
2018-04-17T03:48:09.340Z,0.00
2018-04-17T03:49:09.336Z,0.00
2018-04-17T03:50:09.335Z,0.00
2018-04-17T03:51:09.333Z,0.00
2018-04-17T03:52:09.335Z,0.00
2018-04-17T03:53:09.332Z,0.00
2018-04-17T03:54:09.325Z,0.00
2018-04-17T03:55:09.323Z,0.00
2018-04-17T03:56:09.323Z,0.00
2018-04-17T03:57:09.319Z,4.00
2018-04-17T03:58:09.321Z,4.00
2018-04-17T03:59:09.316Z,4.00
2018-04-17T04:00:09.312Z,0.00
2018-04-17T04:01:09.310Z,4.00
2018-04-17T04:02:09.320Z,4.00
2018-04-17T04:03:09.304Z,0.00
2018-04-17T04:04:09.303Z,4.00
2018-04-17T04:05:09.302Z,4.00
2018-04-17T04:06:09.302Z,8.00
2018-04-17T04:07:09.297Z,4.00
2018-04-17T04:08:09.296Z,8.00
2018-04-17T04:09:09.294Z,8.00
2018-04-17T04:10:09.296Z,8.00
2018-04-17T04:11:09.290Z,8.00
2018-04-17T04:12:09.290Z,12.00
2018-04-17T04:13:09.290Z,12.00
2018-04-17T04:14:09.287Z,16.00
2018-04-17T04:15:09.282Z,20.00
2018-04-17T04:16:09.298Z,16.00
2018-04-17T04:17:09.278Z,20.00
2018-04-17T04:18:09.274Z,24.00
2018-04-17T04:19:09.271Z,28.00
2018-04-17T04:20:09.272Z,28.00
2018-04-17T04:21:09.269Z,32.00
2018-04-17T04:22:09.293Z,32.00
2018-04-17T04:23:09.262Z,36.00
2018-04-17T04:24:09.260Z,40.00
2018-04-17T04:25:09.260Z,44.00
2018-04-17T04:26:09.257Z,44.00
2018-04-17T04:27:09.254Z,48.00
2018-04-17T04:28:09.251Z,52.00
2018-04-17T04:29:09.253Z,56.00
2018-04-17T04:30:09.249Z,60.00
2018-04-17T04:31:09.250Z,60.00
2018-04-17T04:32:09.244Z,68.00
2018-04-17T04:33:09.247Z,72.00
2018-04-17T04:34:09.241Z,80.00
2018-04-17T04:35:09.240Z,84.00
2018-04-17T04:36:09.239Z,92.00
2018-04-17T04:37:09.234Z,96.00
2018-04-17T04:38:09.235Z,104.00
2018-04-17T04:39:09.230Z,112.00
2018-04-17T04:40:09.229Z,116.00
2018-04-17T04:41:09.225Z,128.00
2018-04-17T04:42:09.227Z,136.00
2018-04-17T04:43:09.223Z,140.00
2018-04-17T04:44:09.223Z,148.00
2018-04-17T04:45:09.224Z,156.00
2018-04-17T04:46:09.219Z,164.00
2018-04-17T04:47:09.214Z,172.00
2018-04-17T04:48:09.212Z,184.00
2018-04-17T04:49:09.220Z,192.00
2018-04-17T04:50:09.210Z,200.00
2018-04-17T04:51:09.209Z,204.00
2018-04-17T04:52:09.223Z,212.00
2018-04-17T04:53:09.207Z,220.00
2018-04-17T04:54:09.201Z,228.00
2018-04-17T04:55:09.198Z,236.00
2018-04-17T04:56:09.195Z,248.00
2018-04-17T04:57:09.290Z,260.00
2018-04-17T04:58:09.192Z,272.00
2018-04-17T04:59:09.192Z,288.00
2018-04-17T05:00:09.189Z,300.00
2018-04-17T05:01:09.187Z,312.00
2018-04-17T05:02:09.189Z,316.00
2018-04-17T05:03:09.186Z,320.00
2018-04-17T05:04:09.182Z,324.00
2018-04-17T05:05:09.181Z,324.00
2018-04-17T05:06:10.019Z,324.00
2018-04-17T05:07:09.179Z,328.00
2018-04-17T05:08:09.174Z,332.00
2018-04-17T05:09:09.186Z,336.00
2018-04-17T05:10:09.179Z,348.00
2018-04-17T05:11:09.174Z,360.00
2018-04-17T05:12:09.169Z,372.00
2018-04-17T05:13:09.172Z,384.00
2018-04-17T05:14:09.168Z,404.00
2018-04-17T05:15:09.164Z,420.00
2018-04-17T05:16:09.170Z,424.00
2018-04-17T05:17:09.160Z,428.00
2018-04-17T05:18:09.161Z,440.00
2018-04-17T05:19:09.156Z,452.00
2018-04-17T05:20:09.159Z,460.00
2018-04-17T05:21:09.155Z,480.00
2018-04-17T05:22:09.182Z,488.00
2018-04-17T05:23:09.155Z,500.00
2018-04-17T05:24:09.151Z,504.00
2018-04-17T05:25:09.148Z,508.00
2018-04-17T05:26:09.159Z,508.00
2018-04-17T05:27:09.145Z,516.00
2018-04-17T05:28:09.171Z,512.00
2018-04-17T05:29:09.144Z,508.00
2018-04-17T05:30:09.143Z,508.00
2018-04-17T05:31:09.138Z,520.00
2018-04-17T05:32:09.138Z,528.00
2018-04-17T05:33:09.140Z,536.00
2018-04-17T05:34:09.138Z,552.00
2018-04-17T05:35:09.151Z,564.00
2018-04-17T05:36:09.132Z,580.00
2018-04-17T05:37:09.137Z,604.00
2018-04-17T05:38:09.131Z,628.00
2018-04-17T05:39:09.129Z,652.00
2018-04-17T05:40:09.140Z,676.00
2018-04-17T05:41:09.126Z,720.00
2018-04-17T05:42:09.123Z,780.00
2018-04-17T05:43:09.122Z,828.00
2018-04-17T05:44:09.122Z,844.00
2018-04-17T05:45:09.120Z,848.00
2018-04-17T05:46:09.120Z,860.00
2018-04-17T05:47:09.120Z,884.00
2018-04-17T05:48:09.103Z,912.00
2018-04-17T05:49:09.114Z,936.00
2018-04-17T05:50:10.034Z,956.00
2018-04-17T05:51:09.102Z,968.00
2018-04-17T05:52:09.112Z,976.00
2018-04-17T05:53:09.097Z,996.00
2018-04-17T05:54:09.100Z,1004.00
2018-04-17T05:55:09.096Z,1024.00
2018-04-17T05:56:09.105Z,1044.00
2018-04-17T05:57:09.092Z,1060.00
2018-04-17T05:58:09.092Z,1080.00
2018-04-17T05:59:09.098Z,1116.00
2018-04-17T06:00:09.094Z,1168.00
2018-04-17T06:01:09.108Z,1236.00
2018-04-17T06:02:09.088Z,1272.00
2018-04-17T06:03:09.105Z,1300.00
2018-04-17T06:04:09.089Z,1312.00
2018-04-17T06:05:09.096Z,1328.00
2018-04-17T06:06:09.087Z,1332.00
2018-04-17T06:07:09.088Z,1328.00
2018-04-17T06:08:09.095Z,1336.00
2018-04-17T06:09:09.083Z,1364.00
2018-04-17T06:10:09.098Z,1388.00
2018-04-17T06:11:09.084Z,1388.00
2018-04-17T06:12:09.082Z,1424.00
2018-04-17T06:13:09.083Z,1448.00
2018-04-17T06:14:09.080Z,1476.00
2018-04-17T06:15:09.080Z,1516.00
2018-04-17T06:16:09.082Z,1540.00
2018-04-17T06:17:09.081Z,1560.00
2018-04-17T06:18:09.080Z,1572.00
2018-04-17T06:19:09.079Z,1588.00
2018-04-17T06:20:09.078Z,1608.00
2018-04-17T06:21:09.077Z,1632.00
2018-04-17T06:22:09.082Z,1648.00
2018-04-17T06:23:09.078Z,1664.00
2018-04-17T06:24:09.076Z,1676.00
2018-04-17T06:25:09.093Z,1672.00
2018-04-17T06:26:09.129Z,1676.00
2018-04-17T06:27:09.077Z,1696.00
2018-04-17T06:28:09.078Z,1728.00
2018-04-17T06:29:09.080Z,1760.00
2018-04-17T06:30:09.075Z,1800.00
2018-04-17T06:31:09.092Z,1840.00
2018-04-17T06:32:09.074Z,1892.00
2018-04-17T06:33:09.074Z,1968.00
2018-04-17T06:34:09.080Z,2084.00
2018-04-17T06:35:09.139Z,2464.00
2018-04-17T06:36:09.080Z,2452.00
2018-04-17T06:37:09.075Z,2928.00
2018-04-17T06:38:09.077Z,3896.00
2018-04-17T06:39:09.085Z,4060.00
2018-04-17T06:40:09.079Z,4068.00
2018-04-17T06:41:09.076Z,4024.00
2018-04-17T06:42:09.149Z,3808.00
2018-04-17T06:43:09.080Z,3692.00
2018-04-17T06:44:09.082Z,4092.00
2018-04-17T06:45:09.166Z,4184.00
2018-04-17T06:46:09.085Z,4248.00
2018-04-17T06:47:09.082Z,4332.00
2018-04-17T06:48:09.086Z,4496.00
2018-04-17T06:49:09.085Z,4468.00
2018-04-17T06:50:09.099Z,3836.00
2018-04-17T06:51:09.089Z,3696.00
2018-04-17T06:52:09.093Z,3776.00
2018-04-17T06:53:09.100Z,4504.00
2018-04-17T06:54:09.103Z,3468.00
2018-04-17T06:55:09.107Z,4376.00
2018-04-17T06:56:09.108Z,3316.00
2018-04-17T06:57:09.113Z,3476.00
2018-04-17T06:58:09.152Z,3192.00
2018-04-17T06:59:09.126Z,3036.00
2018-04-17T07:00:09.121Z,2764.00
2018-04-17T07:01:09.125Z,2664.00
2018-04-17T07:02:09.129Z,2392.00
2018-04-17T07:03:09.150Z,2244.00
2018-04-17T07:04:09.140Z,2136.00
2018-04-17T07:05:09.149Z,2084.00
2018-04-17T07:06:09.148Z,2108.00
2018-04-17T07:07:09.148Z,2052.00
2018-04-17T07:08:09.154Z,2044.00
2018-04-17T07:09:09.155Z,2084.00
2018-04-17T07:10:09.179Z,2100.00
2018-04-17T07:11:09.164Z,2144.00
2018-04-17T07:12:09.166Z,2524.00
2018-04-17T07:13:09.169Z,3420.00
2018-04-17T07:14:09.187Z,2392.00
2018-04-17T07:15:09.200Z,2316.00
2018-04-17T07:16:09.207Z,3224.00
2018-04-17T07:17:09.209Z,2316.00
2018-04-17T07:18:09.218Z,2372.00
2018-04-17T07:19:09.219Z,3680.00
2018-04-17T07:20:09.198Z,2376.00
2018-04-17T07:21:09.233Z,2432.00
2018-04-17T07:22:09.204Z,2596.00
2018-04-17T07:23:09.208Z,2416.00
2018-04-17T07:24:09.208Z,2460.00
2018-04-17T07:25:09.213Z,3684.00
2018-04-17T07:26:09.218Z,3768.00
2018-04-17T07:27:09.220Z,2664.00
2018-04-17T07:28:09.222Z,2696.00
2018-04-17T07:29:09.226Z,2716.00
2018-04-17T07:30:09.235Z,2884.00
2018-04-17T07:31:09.232Z,3204.00
2018-04-17T07:32:09.236Z,3480.00
2018-04-17T07:33:09.242Z,3252.00
2018-04-17T07:34:09.246Z,3540.00
2018-04-17T07:35:09.247Z,5192.00
2018-04-17T07:36:09.252Z,6032.00
2018-04-17T07:37:09.261Z,5012.00
2018-04-17T07:38:09.260Z,5900.00
2018-04-17T07:39:09.264Z,6384.00
2018-04-17T07:40:09.267Z,6776.00
2018-04-17T07:41:09.289Z,7020.00
2018-04-17T07:42:09.283Z,7060.00
2018-04-17T07:43:09.302Z,7172.00
2018-04-17T07:44:09.289Z,7220.00
2018-04-17T07:45:09.295Z,7384.00
2018-04-17T07:46:09.303Z,7340.00
2018-04-17T07:47:09.316Z,7320.00
2018-04-17T07:48:09.323Z,7400.00
2018-04-17T07:49:09.317Z,7492.00
2018-04-17T07:50:09.324Z,7452.00
2018-04-17T07:51:09.325Z,7432.00
2018-04-17T07:52:09.341Z,7572.00
2018-04-17T07:53:09.339Z,7672.00
2018-04-17T07:54:09.348Z,7756.00
2018-04-17T07:55:09.367Z,7780.00
2018-04-17T07:56:09.382Z,7896.00
2018-04-17T07:57:09.369Z,8256.00
2018-04-17T07:58:09.389Z,8480.00
2018-04-17T07:59:09.380Z,8632.00
2018-04-17T08:00:09.388Z,8884.00
2018-04-17T08:01:09.398Z,9096.00
2018-04-17T08:02:09.405Z,9292.00
2018-04-17T08:03:09.410Z,9300.00
2018-04-17T08:04:09.416Z,9408.00
2018-04-17T08:05:09.428Z,9852.00
2018-04-17T08:06:09.466Z,10176.00
2018-04-17T08:07:09.444Z,10720.00
2018-04-17T08:08:09.484Z,11240.00
2018-04-17T08:09:09.462Z,11776.00
2018-04-17T08:10:09.470Z,12732.00
2018-04-17T08:11:09.515Z,13412.00
2018-04-17T08:12:09.485Z,13436.00
2018-04-17T08:13:10.075Z,12916.00
2018-04-17T08:14:09.532Z,12296.00
2018-04-17T08:15:09.516Z,10124.00
2018-04-17T08:16:09.525Z,8400.00
2018-04-17T08:17:09.546Z,7972.00
2018-04-17T08:18:09.574Z,7660.00
2018-04-17T08:19:09.601Z,6852.00
2018-04-17T08:20:09.590Z,6180.00
2018-04-17T08:21:09.615Z,6128.00
2018-04-17T08:22:09.608Z,6144.00
2018-04-17T08:23:09.592Z,6152.00
2018-04-17T08:24:09.626Z,6248.00
2018-04-17T08:25:09.613Z,6296.00
2018-04-17T08:26:09.661Z,6320.00
2018-04-17T08:27:09.663Z,6280.00
2018-04-17T08:28:09.672Z,6364.00
2018-04-17T08:29:09.655Z,6520.00
2018-04-17T08:30:09.658Z,6552.00
2018-04-17T08:31:09.668Z,6704.00
2018-04-17T08:32:09.650Z,6872.00
2018-04-17T08:33:09.667Z,6888.00
2018-04-17T08:34:09.694Z,6740.00
2018-04-17T08:35:09.711Z,6584.00
2018-04-17T08:36:09.687Z,6852.00
2018-04-17T08:37:09.687Z,7148.00
2018-04-17T08:38:09.722Z,7184.00
2018-04-17T08:39:09.783Z,7136.00
2018-04-17T08:40:09.791Z,7084.00
2018-04-17T08:41:09.713Z,6988.00
2018-04-17T08:42:09.717Z,6920.00
2018-04-17T08:43:09.725Z,6876.00
2018-04-17T08:44:09.750Z,6932.00
2018-04-17T08:45:09.741Z,7156.00
2018-04-17T08:46:09.750Z,7228.00
2018-04-17T08:47:09.779Z,7120.00
2018-04-17T08:48:09.763Z,7400.00
2018-04-17T08:49:09.770Z,7552.00
2018-04-17T08:50:09.774Z,7316.00
2018-04-17T08:51:09.800Z,7084.00
2018-04-17T08:52:09.787Z,7172.00
2018-04-17T08:53:09.840Z,7256.00
2018-04-17T08:54:09.807Z,7344.00
2018-04-17T08:55:09.865Z,7352.00
2018-04-17T08:56:09.880Z,7352.00
2018-04-17T08:57:09.850Z,7460.00
2018-04-17T08:58:09.841Z,7392.00
2018-04-17T08:59:09.853Z,7328.00
2018-04-17T09:00:09.847Z,7292.00
2018-04-17T09:01:09.865Z,7220.00
2018-04-17T09:02:09.872Z,7108.00
2018-04-17T09:03:09.870Z,7108.00
2018-04-17T09:04:09.876Z,7176.00
2018-04-17T09:05:09.941Z,7216.00
2018-04-17T09:06:09.964Z,7072.00
2018-04-17T09:07:09.919Z,6960.00
2018-04-17T09:08:09.934Z,6840.00
2018-04-17T09:09:09.907Z,6592.00
2018-04-17T09:10:09.912Z,6452.00
2018-04-17T09:11:09.930Z,6608.00
2018-04-17T09:12:09.988Z,6696.00
2018-04-17T09:13:10.008Z,6796.00
2018-04-17T09:14:09.939Z,6836.00
2018-04-17T09:15:09.946Z,6588.00
2018-04-17T09:16:09.954Z,6256.00
2018-04-17T09:17:10.032Z,5408.00
2018-04-17T09:18:09.966Z,4960.00
2018-04-17T09:19:09.990Z,6320.00
2018-04-17T09:20:09.981Z,5072.00
2018-04-17T09:21:09.997Z,5980.00
2018-04-17T09:22:10.005Z,5796.00
2018-04-17T09:23:10.035Z,5240.00
2018-04-17T09:24:10.057Z,4736.00
2018-04-17T09:25:10.100Z,4712.00
2018-04-17T09:26:10.036Z,4184.00
2018-04-17T09:27:10.092Z,4736.00
2018-04-17T09:28:10.065Z,5272.00
2018-04-17T09:29:10.057Z,5520.00
2018-04-17T09:30:10.076Z,5540.00
2018-04-17T09:31:10.130Z,5096.00
2018-04-17T09:32:10.089Z,4260.00
2018-04-17T09:33:10.149Z,3416.00
2018-04-17T09:34:10.117Z,3248.00
2018-04-17T09:35:10.341Z,3780.00
2018-04-17T09:36:10.163Z,4872.00
2018-04-17T09:37:10.144Z,5748.00
2018-04-17T09:38:10.142Z,6648.00
2018-04-17T09:39:10.172Z,6912.00
2018-04-17T09:40:10.134Z,6748.00
2018-04-17T09:41:10.188Z,5380.00
2018-04-17T09:42:10.212Z,5136.00
2018-04-17T09:43:10.189Z,5152.00
2018-04-17T09:44:10.204Z,6336.00
2018-04-17T09:45:10.175Z,8276.00
2018-04-17T09:46:10.352Z,7576.00
2018-04-17T09:47:10.168Z,6844.00
2018-04-17T09:48:10.218Z,7728.00
2018-04-17T09:49:10.182Z,7580.00
2018-04-17T09:50:10.203Z,7300.00
2018-04-17T09:51:10.217Z,7272.00
2018-04-17T09:52:10.226Z,7188.00
2018-04-17T09:53:10.212Z,7048.00
2018-04-17T09:54:10.221Z,7012.00
2018-04-17T09:55:10.256Z,7052.00
2018-04-17T09:56:10.238Z,7216.00
2018-04-17T09:57:10.240Z,7192.00
2018-04-17T09:58:10.256Z,7064.00
2018-04-17T09:59:10.254Z,6924.00
2018-04-17T10:00:10.263Z,7224.00
2018-04-17T10:01:10.284Z,6704.00
2018-04-17T10:02:10.305Z,6828.00
2018-04-17T10:03:10.432Z,5852.00
2018-04-17T10:04:10.294Z,5908.00
2018-04-17T10:05:10.311Z,6868.00
2018-04-17T10:06:10.316Z,6812.00
2018-04-17T10:07:10.327Z,6816.00
2018-04-17T10:08:10.325Z,5876.00
2018-04-17T10:09:10.329Z,6000.00
2018-04-17T10:10:10.336Z,6444.00
2018-04-17T10:11:10.343Z,5688.00
2018-04-17T10:12:10.351Z,5468.00
2018-04-17T10:13:10.358Z,5332.00
2018-04-17T10:14:10.365Z,5244.00
2018-04-17T10:15:10.370Z,5556.00
2018-04-17T10:16:10.377Z,6532.00
2018-04-17T10:17:10.449Z,6868.00
2018-04-17T10:18:10.394Z,6832.00
2018-04-17T10:19:10.400Z,6744.00
2018-04-17T10:20:10.406Z,6756.00
2018-04-17T10:21:10.417Z,5404.00
2018-04-17T10:22:10.424Z,5224.00
2018-04-17T10:23:10.430Z,5836.00
2018-04-17T10:24:10.435Z,6924.00
2018-04-17T10:25:10.453Z,6052.00
2018-04-17T10:26:10.458Z,6036.00
2018-04-17T10:27:10.477Z,5744.00
2018-04-17T10:28:10.463Z,5848.00
2018-04-17T10:29:10.470Z,5404.00
2018-04-17T10:30:10.481Z,4880.00
2018-04-17T10:31:10.500Z,4536.00
2018-04-17T10:32:10.491Z,4272.00
2018-04-17T10:33:10.499Z,4340.00
2018-04-17T10:34:10.508Z,4736.00
2018-04-17T10:35:10.512Z,4652.00
2018-04-17T10:36:10.524Z,4464.00
2018-04-17T10:37:10.526Z,4644.00
2018-04-17T10:38:10.533Z,4828.00
2018-04-17T10:39:10.555Z,5440.00
2018-04-17T10:40:10.546Z,6712.00
2018-04-17T10:41:10.560Z,6772.00
2018-04-17T10:42:10.564Z,6856.00
2018-04-17T10:43:11.163Z,6780.00
2018-04-17T10:44:11.106Z,6656.00
2018-04-17T10:45:11.138Z,6500.00
2018-04-17T10:46:11.151Z,6416.00
2018-04-17T10:47:11.102Z,6456.00
2018-04-17T10:48:11.220Z,6292.00
2018-04-17T10:49:11.087Z,6284.00
2018-04-17T10:50:11.094Z,6312.00
2018-04-17T10:51:11.088Z,6256.00
2018-04-17T10:52:11.129Z,5900.00
2018-04-17T10:53:11.101Z,5872.00
2018-04-17T10:54:11.084Z,5784.00
2018-04-17T10:55:11.108Z,5528.00
2018-04-17T10:56:11.105Z,5788.00
2018-04-17T10:57:11.112Z,5660.00
2018-04-17T10:58:11.132Z,5628.00
2018-04-17T10:59:11.599Z,5280.00
2018-04-17T11:00:11.094Z,5612.00
2018-04-17T11:01:11.086Z,5628.00
2018-04-17T11:02:11.118Z,5576.00
2018-04-17T11:03:11.085Z,5536.00
2018-04-17T11:04:11.087Z,5604.00
2018-04-17T11:05:11.126Z,5636.00
2018-04-17T11:06:11.114Z,5592.00
2018-04-17T11:07:11.099Z,5444.00
2018-04-17T11:08:11.094Z,5232.00
2018-04-17T11:09:11.148Z,4048.00
2018-04-17T11:10:11.089Z,4168.00
2018-04-17T11:11:11.094Z,4372.00
2018-04-17T11:12:11.087Z,3992.00
2018-04-17T11:13:11.085Z,4084.00
2018-04-17T11:14:11.079Z,4300.00
2018-04-17T11:15:11.127Z,4604.00
2018-04-17T11:16:11.097Z,5644.00
2018-04-17T11:17:11.085Z,5648.00
2018-04-17T11:18:11.078Z,5536.00
2018-04-17T11:19:11.110Z,4708.00
2018-04-17T11:20:11.872Z,5400.00
2018-04-17T11:21:11.081Z,5232.00
2018-04-17T11:22:11.098Z,3988.00
2018-04-17T11:23:11.122Z,4448.00
2018-04-17T11:24:11.101Z,4600.00
2018-04-17T11:25:11.115Z,4396.00
2018-04-17T11:26:11.100Z,4188.00
2018-04-17T11:27:11.113Z,2896.00
2018-04-17T11:28:11.073Z,2480.00
2018-04-17T11:29:11.082Z,2300.00
2018-04-17T11:30:11.065Z,2208.00
2018-04-17T11:31:11.065Z,2172.00
2018-04-17T11:32:11.088Z,2140.00
2018-04-17T11:33:11.064Z,2092.00
2018-04-17T11:34:11.083Z,2136.00
2018-04-17T11:35:11.006Z,2276.00
2018-04-17T11:36:11.157Z,2292.00
2018-04-17T11:37:11.074Z,3244.00
2018-04-17T11:38:11.104Z,2220.00
2018-04-17T11:39:11.114Z,3020.00
2018-04-17T11:40:11.137Z,3588.00
2018-04-17T11:41:11.126Z,3904.00
2018-04-17T11:42:11.098Z,4056.00
2018-04-17T11:43:13.055Z,4208.00
2018-04-17T11:44:11.014Z,4404.00
2018-04-17T11:45:11.209Z,4608.00
2018-04-17T11:46:11.229Z,4716.00
2018-04-17T11:47:11.242Z,4736.00
2018-04-17T11:48:11.198Z,4784.00
2018-04-17T11:49:11.263Z,4876.00
2018-04-17T11:50:11.101Z,4860.00
2018-04-17T11:51:11.185Z,4856.00
2018-04-17T11:52:11.112Z,4760.00
2018-04-17T11:53:11.094Z,4704.00
2018-04-17T11:54:11.166Z,4660.00
2018-04-17T11:55:11.121Z,4608.00
2018-04-17T11:56:12.667Z,4556.00
2018-04-17T11:57:11.161Z,4512.00
2018-04-17T11:58:11.134Z,4468.00
2018-04-17T11:59:11.206Z,4500.00
2018-04-17T12:00:11.183Z,4400.00
2018-04-17T12:01:11.169Z,4344.00
2018-04-17T12:02:11.288Z,3524.00
2018-04-17T12:03:11.150Z,3400.00
2018-04-17T12:04:11.133Z,3652.00
2018-04-17T12:05:11.182Z,3312.00
2018-04-17T12:06:11.180Z,3812.00
2018-04-17T12:07:11.151Z,3020.00
2018-04-17T12:08:11.157Z,2916.00
2018-04-17T12:09:11.170Z,2832.00
2018-04-17T12:10:11.172Z,2756.00
2018-04-17T12:11:11.199Z,2708.00
2018-04-17T12:12:11.762Z,2680.00
2018-04-17T12:13:11.220Z,2676.00
2018-04-17T12:14:11.438Z,2632.00
2018-04-17T12:15:12.253Z,2576.00
2018-04-17T12:16:11.225Z,2620.00
2018-04-17T12:17:11.220Z,3456.00
2018-04-17T12:18:11.244Z,2684.00
2018-04-17T12:19:11.236Z,2728.00
2018-04-17T12:20:11.242Z,2808.00
2018-04-17T12:21:11.488Z,2988.00
2018-04-17T12:22:11.282Z,3228.00
2018-04-17T12:23:11.273Z,3044.00
2018-04-17T12:24:11.280Z,3088.00
2018-04-17T12:25:11.297Z,4036.00
2018-04-17T12:26:11.281Z,4072.00
2018-04-17T12:27:11.367Z,4056.00
2018-04-17T12:28:11.362Z,3956.00
2018-04-17T12:29:11.302Z,4052.00
2018-04-17T12:30:11.311Z,4120.00
2018-04-17T12:31:11.317Z,3580.00
2018-04-17T12:32:11.355Z,3524.00